createdAt,value
2023-09-17T00:00:35.375Z,16.62
2023-09-17T00:03:22.829Z,16.55
2023-09-17T00:05:55.498Z,16.51
2023-09-17T00:08:28.181Z,16.55
2023-09-17T00:10:56.171Z,16.56
2023-09-17T00:13:23.943Z,16.56
2023-09-17T00:16:00.743Z,16.75
2023-09-17T00:18:33.368Z,16.73
2023-09-17T00:21:01.252Z,16.53
2023-09-17T00:23:33.322Z,16.46
2023-09-17T00:26:05.978Z,16.29
2023-09-17T00:28:33.302Z,16.33
2023-09-17T00:31:26.552Z,16.41
2023-09-17T00:33:54.080Z,16.47
2023-09-17T00:36:30.970Z,16.55
2023-09-17T00:39:02.584Z,16.50
2023-09-17T00:41:34.917Z,16.44
2023-09-17T00:44:02.378Z,16.32
2023-09-17T00:46:32.957Z,16.16
2023-09-17T00:49:05.447Z,16.15
2023-09-17T00:51:33.276Z,16.33
2023-09-17T00:54:00.795Z,16.34
2023-09-17T00:56:33.241Z,16.31
2023-09-17T00:59:00.991Z,16.21
2023-09-17T01:01:30.747Z,15.92
2023-09-17T01:04:00.866Z,15.84
2023-09-17T01:06:29.288Z,16.00
2023-09-17T01:08:57.510Z,16.07
2023-09-17T01:11:26.471Z,15.97
2023-09-17T01:13:54.678Z,15.87
2023-09-17T01:16:27.172Z,15.85
2023-09-17T01:19:12.188Z,15.72
2023-09-17T01:21:57.403Z,15.74
2023-09-17T01:24:29.691Z,15.76
2023-09-17T01:27:03.521Z,16.04
2023-09-17T01:29:35.997Z,16.07
2023-09-17T01:32:04.085Z,15.95
2023-09-17T01:34:32.239Z,15.88
2023-09-17T01:37:03.840Z,15.95
2023-09-17T01:39:42.361Z,16.03
2023-09-17T01:42:16.222Z,15.78
2023-09-17T01:44:46.124Z,15.57
2023-09-17T01:47:14.760Z,15.67
2023-09-17T01:49:43.176Z,15.69
2023-09-17T01:52:12.339Z,15.73
2023-09-17T01:54:40.039Z,15.67
2023-09-17T01:57:07.692Z,15.56
2023-09-17T01:59:36.606Z,15.33
2023-09-17T02:02:04.716Z,15.26
2023-09-17T02:04:32.232Z,15.34
2023-09-17T02:07:00.208Z,15.30
2023-09-17T02:09:27.634Z,15.50
2023-09-17T02:11:55.464Z,15.39
2023-09-17T02:14:22.812Z,15.37
2023-09-17T02:16:55.967Z,15.32
2023-09-17T02:19:23.504Z,15.30
2023-09-17T02:21:51.369Z,15.31
2023-09-17T02:24:18.979Z,15.41
2023-09-17T02:26:46.817Z,15.35
2023-09-17T02:29:14.407Z,15.37
2023-09-17T02:31:42.153Z,15.46
2023-09-17T02:34:11.000Z,15.52
2023-09-17T02:36:38.900Z,15.36
2023-09-17T02:39:10.877Z,15.05
2023-09-17T02:41:38.710Z,15.11
2023-09-17T02:44:06.266Z,15.19
2023-09-17T02:46:36.445Z,15.10
2023-09-17T02:49:03.979Z,15.07
2023-09-17T02:51:37.091Z,15.08
2023-09-17T02:54:10.451Z,15.04
2023-09-17T02:56:39.700Z,14.97
2023-09-17T02:59:11.645Z,14.95
2023-09-17T03:01:44.027Z,14.94
2023-09-17T03:07:12.613Z,14.75
2023-09-17T03:09:49.400Z,14.66
2023-09-17T03:12:17.281Z,14.68
2023-09-17T03:14:44.691Z,14.75
2023-09-17T03:17:12.561Z,14.74
2023-09-17T03:19:40.065Z,14.56
2023-09-17T03:22:24.545Z,14.30
2023-09-17T03:25:03.224Z,14.38
2023-09-17T03:27:37.494Z,14.49
2023-09-17T03:30:05.856Z,14.65
2023-09-17T03:33:01.923Z,14.89
2023-09-17T03:35:32.190Z,14.89
2023-09-17T03:38:10.597Z,14.87
2023-09-17T03:40:42.491Z,14.91
2023-09-17T03:43:10.610Z,14.82
2023-09-17T03:45:38.217Z,14.94
2023-09-17T03:48:07.092Z,15.02
2023-09-17T03:50:35.314Z,14.79
2023-09-17T03:53:04.122Z,14.72
2023-09-17T03:55:37.257Z,14.51
2023-09-17T03:58:05.406Z,14.45
2023-09-17T04:00:32.900Z,14.53
2023-09-17T04:03:00.739Z,14.58
2023-09-17T04:05:28.196Z,14.49
2023-09-17T04:07:56.083Z,14.54
2023-09-17T04:10:23.602Z,14.63
2023-09-17T04:12:53.013Z,14.47
2023-09-17T04:15:20.497Z,14.43
2023-09-17T04:17:49.787Z,14.42
2023-09-17T04:20:17.705Z,14.65
2023-09-17T04:22:46.268Z,14.53
2023-09-17T04:25:14.449Z,14.34
2023-09-17T04:27:43.231Z,14.25
2023-09-17T04:30:17.193Z,14.07
2023-09-17T04:32:46.859Z,14.22
2023-09-17T04:35:15.582Z,14.39
2023-09-17T04:37:43.453Z,14.38
2023-09-17T04:40:11.436Z,14.43
2023-09-17T04:42:41.048Z,14.49
2023-09-17T04:45:10.885Z,14.34
2023-09-17T04:47:44.009Z,14.41
2023-09-17T04:50:11.824Z,14.40
2023-09-17T04:52:39.655Z,14.35
2023-09-17T04:55:07.675Z,14.20
2023-09-17T04:57:35.489Z,14.37
2023-09-17T05:00:09.400Z,14.58
2023-09-17T05:02:42.425Z,14.41
2023-09-17T05:05:21.704Z,14.60
2023-09-17T05:07:56.457Z,14.80
2023-09-17T05:10:24.243Z,14.97
2023-09-17T05:12:56.432Z,15.12
2023-09-17T05:15:30.406Z,15.41
2023-09-17T05:18:03.424Z,15.36
2023-09-17T05:20:37.361Z,15.67
2023-09-17T05:23:12.382Z,15.78
2023-09-17T05:25:44.481Z,16.02
2023-09-17T05:28:12.552Z,16.44
2023-09-17T05:30:41.124Z,16.61
2023-09-17T05:33:13.416Z,16.92
2023-09-17T05:35:46.043Z,17.31
2023-09-17T05:38:14.018Z,17.63
2023-09-17T05:40:41.482Z,17.80
2023-09-17T05:43:09.418Z,18.15
2023-09-17T05:45:37.079Z,18.45
2023-09-17T05:48:06.003Z,18.75
2023-09-17T05:50:33.766Z,18.95
2023-09-17T05:53:13.595Z,19.20
2023-09-17T05:55:51.442Z,19.34
2023-09-17T05:58:19.580Z,19.47
2023-09-17T06:00:49.829Z,19.73
2023-09-17T06:03:20.895Z,19.93
2023-09-17T06:05:48.758Z,19.99
2023-09-17T06:08:30.884Z,19.98
2023-09-17T06:10:58.422Z,19.62
2023-09-17T06:13:30.404Z,19.55
2023-09-17T06:15:59.799Z,19.79
2023-09-17T06:18:27.607Z,19.70
2023-09-17T06:20:55.262Z,19.87
2023-09-17T06:23:23.145Z,19.92
2023-09-17T06:25:51.951Z,19.99
2023-09-17T06:28:19.998Z,19.78
2023-09-17T06:30:47.584Z,19.70
2023-09-17T06:33:15.598Z,19.83
2023-09-17T06:35:43.081Z,20.07
2023-09-17T06:38:10.772Z,20.28
2023-09-17T06:40:38.337Z,20.41
2023-09-17T06:43:07.783Z,20.51
2023-09-17T06:45:35.228Z,20.39
2023-09-17T06:48:08.052Z,20.46
2023-09-17T06:50:35.569Z,20.52
2023-09-17T06:53:03.812Z,20.60
2023-09-17T06:55:31.318Z,20.53
2023-09-17T06:57:59.098Z,20.72
2023-09-17T07:00:31.906Z,21.01
2023-09-17T07:02:59.742Z,20.95
2023-09-17T07:05:27.224Z,21.06
2023-09-17T07:07:55.214Z,21.21
2023-09-17T07:10:22.778Z,21.57
2023-09-17T07:12:52.227Z,21.61
2023-09-17T07:15:19.789Z,21.92
2023-09-17T07:17:48.991Z,22.14
2023-09-17T07:20:16.381Z,22.23
2023-09-17T07:22:45.068Z,22.20
2023-09-17T07:25:20.503Z,22.24
2023-09-17T07:28:14.595Z,22.65
2023-09-17T07:30:57.597Z,22.63
2023-09-17T07:33:35.072Z,22.53
2023-09-17T07:36:11.698Z,22.68
2023-09-17T07:39:10.121Z,22.96
2023-09-17T07:41:52.739Z,23.39
2023-09-17T07:44:42.400Z,23.55
2023-09-17T07:47:34.893Z,23.58
2023-09-17T07:50:36.659Z,23.50
2023-09-17T07:53:14.638Z,23.20
2023-09-17T07:56:21.520Z,23.47
2023-09-17T07:58:59.142Z,23.82
2023-09-17T08:04:36.261Z,24.01
2023-09-17T08:07:31.746Z,24.06
2023-09-17T08:10:17.540Z,24.14
2023-09-17T08:13:03.501Z,24.01
2023-09-17T08:15:37.672Z,24.10
2023-09-17T08:20:58.694Z,24.34
2023-09-17T08:29:48.618Z,24.44
2023-09-17T08:32:25.770Z,24.64
2023-09-17T08:34:58.131Z,24.72
2023-09-17T08:37:30.765Z,25.12
2023-09-17T08:39:58.318Z,25.29
2023-09-17T08:42:26.612Z,25.35
2023-09-17T08:45:01.903Z,25.50
2023-09-17T08:47:30.028Z,25.76
2023-09-17T08:50:02.452Z,25.76
2023-09-17T08:52:34.785Z,25.61
2023-09-17T08:55:06.929Z,25.50
2023-09-17T08:57:40.924Z,25.82
2023-09-17T09:00:22.703Z,26.05
2023-09-17T09:02:57.363Z,25.90
2023-09-17T09:05:31.560Z,25.97
2023-09-17T09:08:00.072Z,25.89
2023-09-17T09:10:27.625Z,26.24
2023-09-17T09:12:56.645Z,26.43
2023-09-17T09:15:33.148Z,26.56
2023-09-17T09:18:06.398Z,26.81
2023-09-17T09:20:36.711Z,27.12
2023-09-17T09:23:05.299Z,27.56
2023-09-17T09:25:33.104Z,27.33
2023-09-17T09:28:01.175Z,27.41
2023-09-17T09:30:41.441Z,27.57
2023-09-17T09:33:09.687Z,27.16
2023-09-17T09:35:42.405Z,27.33
2023-09-17T09:38:12.277Z,27.46
2023-09-17T09:40:40.248Z,27.91
2023-09-17T09:43:31.595Z,27.98
2023-09-17T09:46:21.412Z,27.83
2023-09-17T09:49:00.458Z,28.28
2023-09-17T09:51:33.328Z,28.62
2023-09-17T09:54:07.302Z,28.38
2023-09-17T09:56:35.118Z,28.33
2023-09-17T09:59:03.155Z,28.31
2023-09-17T10:01:39.363Z,28.37
2023-09-17T10:04:17.438Z,28.49
2023-09-17T10:06:47.216Z,28.54
2023-09-17T10:09:17.325Z,28.90
2023-09-17T10:11:44.887Z,29.08
2023-09-17T10:14:17.424Z,29.34
2023-09-17T10:16:56.977Z,29.36
2023-09-17T10:19:26.654Z,29.03
2023-09-17T10:21:54.886Z,28.97
2023-09-17T10:24:24.457Z,28.77
2023-09-17T10:26:57.111Z,28.74
2023-09-17T10:29:29.679Z,29.03
2023-09-17T10:31:59.834Z,29.56
2023-09-17T10:34:29.299Z,30.09
2023-09-17T10:37:01.460Z,30.29
2023-09-17T10:39:42.501Z,29.53
2023-09-17T10:42:15.508Z,29.40
2023-09-17T10:44:50.536Z,28.70
2023-09-17T10:47:26.469Z,28.97
2023-09-17T10:49:56.182Z,29.41
2023-09-17T10:52:24.110Z,29.93
2023-09-17T10:54:56.215Z,29.47
2023-09-17T10:57:43.408Z,29.55
2023-09-17T11:00:18.654Z,29.62
2023-09-17T11:02:55.849Z,29.92
2023-09-17T11:05:33.442Z,30.24
2023-09-17T11:08:04.747Z,29.98
2023-09-17T11:10:42.530Z,29.38
2023-09-17T11:16:07.373Z,29.41
2023-09-17T11:19:26.510Z,29.90
2023-09-17T11:25:07.435Z,30.07
2023-09-17T11:28:02.414Z,30.77
2023-09-17T11:34:01.458Z,30.65
2023-09-17T11:42:57.922Z,29.78
2023-09-17T11:48:16.534Z,30.23
2023-09-17T13:00:54.634Z,33.39
2023-09-17T15:05:29.418Z,31.87
2023-09-17T15:08:02.549Z,31.59
2023-09-17T15:10:35.391Z,31.63
2023-09-17T15:13:17.314Z,31.54
2023-09-17T15:15:49.759Z,31.25
2023-09-17T15:18:18.325Z,31.27
2023-09-17T15:20:59.123Z,31.14
2023-09-17T15:23:31.533Z,31.16
2023-09-17T15:26:00.527Z,30.97
2023-09-17T15:28:28.790Z,30.86
2023-09-17T15:31:01.397Z,30.71
2023-09-17T15:33:29.862Z,30.52
2023-09-17T15:36:09.319Z,30.54
2023-09-17T15:38:51.638Z,30.54
2023-09-17T15:41:28.172Z,30.41
2023-09-17T15:44:13.010Z,30.54
2023-09-17T15:46:50.581Z,30.37
2023-09-17T15:49:32.563Z,30.28
2023-09-17T15:52:10.082Z,30.22
2023-09-17T15:55:01.984Z,29.73
2023-09-17T15:57:35.569Z,29.75
2023-09-17T16:00:03.899Z,29.64
2023-09-17T16:02:39.710Z,29.56
2023-09-17T16:05:07.931Z,29.16
2023-09-17T16:07:40.555Z,29.04
2023-09-17T16:10:09.520Z,29.06
2023-09-17T16:12:37.569Z,29.00
2023-09-17T16:15:05.700Z,29.00
2023-09-17T16:17:34.001Z,28.92
2023-09-17T16:20:01.789Z,28.75
2023-09-17T16:22:30.193Z,28.68
2023-09-17T16:24:59.492Z,28.60
2023-09-17T16:27:36.454Z,28.49
2023-09-17T16:30:09.450Z,28.40
2023-09-17T16:32:56.642Z,28.28
2023-09-17T16:35:41.917Z,28.19
2023-09-17T16:38:29.548Z,27.97
2023-09-17T16:41:29.758Z,27.91
2023-09-17T16:44:36.481Z,27.72
2023-09-17T16:47:15.748Z,27.44
2023-09-17T16:49:51.167Z,27.28
2023-09-17T16:52:32.600Z,27.09
2023-09-17T16:55:05.144Z,26.99
2023-09-17T16:57:46.810Z,26.90
2023-09-17T17:00:24.040Z,26.64
2023-09-17T17:03:17.522Z,26.49
2023-09-17T17:22:57.590Z,25.67
2023-09-17T17:32:15.572Z,24.68
2023-09-17T17:38:07.685Z,24.43
2023-09-17T17:41:09.639Z,24.18
2023-09-17T17:44:02.635Z,23.93
2023-09-17T17:52:24.530Z,23.40
2023-09-17T17:55:08.720Z,23.27
2023-09-17T17:57:57.492Z,23.00
2023-09-17T18:00:32.535Z,22.65
2023-09-17T18:03:26.553Z,22.48
2023-09-17T18:06:10.511Z,22.31
2023-09-17T18:09:03.469Z,22.37
2023-09-17T18:11:43.540Z,22.26
2023-09-17T18:14:25.815Z,21.54
2023-09-17T18:17:00.711Z,21.27
2023-09-17T18:19:33.572Z,21.29
2023-09-17T18:22:07.378Z,21.30
2023-09-17T18:24:49.528Z,21.35
2023-09-17T18:27:28.424Z,21.42
2023-09-17T18:32:55.120Z,21.13
2023-09-17T18:35:34.556Z,21.12
2023-09-17T18:38:06.990Z,21.36
2023-09-17T18:40:37.473Z,21.44
2023-09-17T18:43:18.393Z,21.62
2023-09-17T18:46:11.460Z,21.48
2023-09-17T18:48:43.574Z,21.35
2023-09-17T18:51:12.835Z,21.52
2023-09-17T18:53:47.049Z,21.43
2023-09-17T18:56:19.615Z,21.31
2023-09-17T18:58:56.530Z,21.35
2023-09-17T19:01:43.647Z,21.15
2023-09-17T19:04:19.480Z,21.13
2023-09-17T19:06:52.689Z,21.01
2023-09-17T19:09:26.572Z,20.89
2023-09-17T19:12:00.495Z,20.94
2023-09-17T19:14:52.618Z,20.78
2023-09-17T19:17:38.579Z,20.56
2023-09-17T19:20:08.841Z,20.62
2023-09-17T19:22:47.550Z,20.57
2023-09-17T19:25:26.475Z,20.49
2023-09-17T19:28:10.565Z,20.46
2023-09-17T19:30:44.810Z,20.38
2023-09-17T19:33:32.544Z,20.13
2023-09-17T19:36:01.976Z,20.18
2023-09-17T19:38:44.515Z,20.26
2023-09-17T19:41:21.527Z,20.05
2023-09-17T19:43:54.583Z,20.04
2023-09-17T19:46:35.644Z,19.94
2023-09-17T19:55:52.220Z,20.10
2023-09-17T19:58:29.650Z,20.19
2023-09-17T20:01:21.597Z,20.22
2023-09-17T20:04:03.805Z,20.23
2023-09-17T20:06:56.046Z,20.00
2023-09-17T20:09:36.144Z,19.88
2023-09-17T20:12:13.616Z,19.81
2023-09-17T20:14:42.099Z,19.77
2023-09-17T20:17:14.453Z,19.78
2023-09-17T20:19:51.838Z,19.74
2023-09-17T20:22:35.434Z,19.65
2023-09-17T20:25:03.073Z,19.52
2023-09-17T20:27:40.420Z,19.39
2023-09-17T20:30:17.569Z,19.41
2023-09-17T20:32:52.757Z,19.09
2023-09-17T20:35:20.462Z,19.16
2023-09-17T20:38:12.454Z,19.02
2023-09-17T20:40:44.772Z,19.16
2023-09-17T20:43:31.474Z,18.99
2023-09-17T20:45:59.458Z,18.88
2023-09-17T20:48:31.564Z,18.92
2023-09-17T20:51:09.461Z,19.02
2023-09-17T20:53:50.700Z,19.08
2023-09-17T20:56:19.790Z,19.02
2023-09-17T20:58:57.378Z,18.99
2023-09-17T21:01:29.449Z,18.75
2023-09-17T21:03:57.620Z,18.65
2023-09-17T21:06:25.478Z,18.61
2023-09-17T21:08:54.983Z,18.58
2023-09-17T21:11:24.174Z,18.45
2023-09-17T21:14:02.440Z,18.37
2023-09-17T21:16:36.406Z,18.37
2023-09-17T21:19:18.517Z,18.30
2023-09-17T21:21:50.967Z,18.33
2023-09-17T21:24:25.791Z,18.32
2023-09-17T21:26:53.751Z,18.40
2023-09-17T21:29:30.495Z,18.36
2023-09-17T21:32:11.472Z,18.28
2023-09-17T21:34:43.732Z,18.31
2023-09-17T21:37:15.393Z,18.34
2023-09-17T21:39:49.638Z,18.26
2023-09-17T21:42:17.122Z,18.00
2023-09-17T21:44:44.987Z,17.85
2023-09-17T21:47:12.410Z,17.88
2023-09-17T21:49:40.514Z,17.90
2023-09-17T21:52:07.885Z,17.91
2023-09-17T21:54:35.766Z,17.73
2023-09-17T21:57:18.036Z,17.77
2023-09-17T21:59:48.721Z,17.80
2023-09-17T22:02:16.678Z,17.71
2023-09-17T22:04:44.677Z,17.62
2023-09-17T22:07:12.133Z,17.69
2023-09-17T22:09:40.622Z,17.75
2023-09-17T22:12:09.776Z,17.65
2023-09-17T22:14:38.118Z,17.41
2023-09-17T22:17:05.780Z,17.35
2023-09-17T22:19:33.560Z,17.27
2023-09-17T22:22:01.084Z,17.24
2023-09-17T22:24:28.909Z,17.26
2023-09-17T22:26:56.370Z,17.34
2023-09-17T22:29:28.967Z,17.48
2023-09-17T22:31:56.981Z,17.31
2023-09-17T22:34:24.529Z,17.35
2023-09-17T22:36:52.382Z,17.23
2023-09-17T22:39:19.897Z,17.29
2023-09-17T22:41:47.583Z,17.30
2023-09-17T22:44:23.359Z,17.29
2023-09-17T22:47:00.289Z,17.28
2023-09-17T22:49:27.812Z,17.30
2023-09-17T22:51:55.924Z,17.39
2023-09-17T22:54:23.475Z,17.19
2023-09-17T22:56:51.192Z,17.13
2023-09-17T22:59:18.630Z,16.89
2023-09-17T23:01:46.549Z,16.92
2023-09-17T23:04:15.208Z,17.06
2023-09-17T23:06:43.103Z,17.01
2023-09-17T23:09:10.581Z,17.01
2023-09-17T23:11:38.266Z,17.06
2023-09-17T23:14:05.679Z,17.04
2023-09-17T23:16:33.567Z,17.01
2023-09-17T23:19:00.895Z,16.95
2023-09-17T23:21:30.015Z,16.96
2023-09-17T23:23:57.546Z,16.89
2023-09-17T23:26:25.453Z,16.90
2023-09-17T23:28:53.099Z,17.03
2023-09-17T23:31:21.026Z,17.01
2023-09-17T23:33:48.414Z,16.94
2023-09-17T23:36:16.057Z,16.89
2023-09-17T23:38:44.847Z,16.88
2023-09-17T23:41:12.843Z,16.79
2023-09-17T23:43:40.375Z,16.78
2023-09-17T23:46:08.218Z,16.74
2023-09-17T23:48:35.578Z,16.62
2023-09-17T23:51:03.386Z,16.67
2023-09-17T23:53:34.179Z,16.62
2023-09-17T23:56:03.732Z,16.58
2023-09-17T23:58:31.266Z,16.58
